Map

Track Data

SID SEASON NUMBER BASIN SUBBASIN NAME ISO_TIME NATURE LAT LON WMO_WIND WMO_PRES WMO_AGENCY TRACK_TYPE DIST2LAND LANDFALL IFLAG USA_AGENCY USA_ATCF_ID USA_LAT USA_LON USA_RECORD USA_STATUS USA_WIND USA_PRES USA_SSHS USA_R34_NE USA_R34_SE USA_R34_SW USA_R34_NW USA_R50_NE USA_R50_SE USA_R50_SW USA_R50_NW USA_R64_NE USA_R64_SE USA_R64_SW USA_R64_NW USA_POCI USA_ROCI USA_RMW USA_EYE TOKYO_LAT TOKYO_LON TOKYO_GRADE TOKYO_WIND TOKYO_PRES TOKYO_R50_DIR TOKYO_R50_LONG TOKYO_R50_SHORT TOKYO_R30_DIR TOKYO_R30_LONG TOKYO_R30_SHORT TOKYO_LAND CMA_LAT CMA_LON CMA_CAT CMA_WIND CMA_PRES HKO_LAT HKO_LON HKO_CAT HKO_WIND HKO_PRES NEWDELHI_LAT NEWDELHI_LON NEWDELHI_GRADE NEWDELHI_WIND NEWDELHI_PRES NEWDELHI_CI NEWDELHI_DP NEWDELHI_POCI REUNION_LAT REUNION_LON REUNION_TYPE REUNION_WIND REUNION_PRES REUNION_TNUM REUNION_CI REUNION_RMW REUNION_R34_NE REUNION_R34_SE REUNION_R34_SW REUNION_R34_NW REUNION_R50_NE REUNION_R50_SE REUNION_R50_SW REUNION_R50_NW REUNION_R64_NE REUNION_R64_SE REUNION_R64_SW REUNION_R64_NW BOM_LAT BOM_LON BOM_TYPE BOM_WIND BOM_PRES BOM_TNUM BOM_CI BOM_RMW BOM_R34_NE BOM_R34_SE BOM_R34_SW BOM_R34_NW BOM_R50_NE BOM_R50_SE BOM_R50_SW BOM_R50_NW BOM_R64_NE BOM_R64_SE BOM_R64_SW BOM_R64_NW BOM_ROCI BOM_POCI BOM_EYE BOM_POS_METHOD BOM_PRES_METHOD NADI_LAT NADI_LON NADI_CAT NADI_WIND NADI_PRES WELLINGTON_LAT WELLINGTON_LON WELLINGTON_WIND WELLINGTON_PRES DS824_LAT DS824_LON DS824_STAGE DS824_WIND DS824_PRES TD9636_LAT TD9636_LON TD9636_STAGE TD9636_WIND TD9636_PRES TD9635_LAT TD9635_LON TD9635_WIND TD9635_PRES TD9635_ROCI NEUMANN_LAT NEUMANN_LON NEUMANN_CLASS NEUMANN_WIND NEUMANN_PRES MLC_LAT MLC_LON MLC_CLASS MLC_WIND MLC_PRES USA_GUST BOM_GUST BOM_GUST_PER REUNION_GUST REUNION_GUST_PER USA_SEAHGT USA_SEARAD_NE USA_SEARAD_SE USA_SEARAD_SW USA_SEARAD_NW STORM_SPEED STORM_DIR
1939011S12092 1939 5 SI WA NOT_NAMED 1939-01-11 06:00:00 NR -12.0000 91.8000 main 1394 1394 _____O________ -1 -12.0000 91.8000 99 9.90000 2 250
1939011S12092 1939 5 SI WA NOT_NAMED 1939-01-11 09:00:00 NR -12.0384 91.6942 main 1401 1401 _____P________ -1 -12.0384 91.6942 99 2 250
1939011S12092 1939 5 SI WA NOT_NAMED 1939-01-11 12:00:00 NR -12.0767 91.5877 main 1416 1416 _____P________ -1 -12.0767 91.5877 99 2 250
1939011S12092 1939 5 SI WA NOT_NAMED 1939-01-11 15:00:00 NR -12.1148 91.4799 main 1422 1422 _____P________ -1 -12.1148 91.4799 99 2 250
1939011S12092 1939 5 SI WA NOT_NAMED 1939-01-11 18:00:00 NR -12.1526 91.3702 main 1438 1438 _____P________ -1 -12.1526 91.3702 99 2 251
1939011S12092 1939 5 SI WA NOT_NAMED 1939-01-11 21:00:00 NR -12.1902 91.2580 main 1444 1444 _____P________ -1 -12.1902 91.2580 99 5 259
1939011S12092 1939 5 SI WA NOT_NAMED 1939-01-12 00:00:00 NR -12.2418 90.9142 main 1470 1470 _____P____O___ -1 -12.2273 91.1427 99 -12.3000 90.0000 7 5 259
1939011S12092 1939 5 SI WA NOT_NAMED 1939-01-12 03:00:00 NR -12.2879 90.7235 main 1492 1492 _____P____P___ -1 -12.2639 91.0236 99 -12.3360 90.1234 7 3 253
1939011S12092 1939 5 SI WA NOT_NAMED 1939-01-12 06:00:00 NR -12.3332 90.6117 main 1499 1499 _____O____P___ -1 -12.3000 90.9000 99 9.90000 -12.3775 90.2274 7 2 243
1939011S12092 1939 5 SI WA NOT_NAMED 1939-01-12 09:00:00 NR -12.3830 90.5321 main 1515 1515 _____P____P___ -1 -12.3357 90.7715 99 -12.4303 90.2927 7 2 233
1939011S12092 1939 5 SI WA NOT_NAMED 1939-01-12 12:00:00 NR -12.4362 90.4688 main 1515 1515 _____P____O___ -1 -12.3724 90.6376 99 -12.5000 90.3000 7 2 234
1939011S12092 1939 5 SI WA NOT_NAMED 1939-01-12 15:00:00 NR -12.5006 90.3672 main 1530 1530 _____P____P___ -1 -12.4115 90.4979 99 -12.5897 90.2366 7 3 239
1939011S12092 1939 5 SI WA NOT_NAMED 1939-01-12 18:00:00 NR -12.5737 90.2348 main 1552 1552 _____P____P___ -1 -12.4548 90.3521 99 -12.6925 90.1176 7 3 242
1939011S12092 1939 5 SI WA NOT_NAMED 1939-01-12 21:00:00 NR -12.6514 90.0823 main 1568 1568 _____P____P___ -1 -12.5037 90.1998 99 -12.7991 89.9648 7 3 243
1939011S12092 1939 5 SI MM NOT_NAMED 1939-01-13 00:00:00 NR -12.7299 89.9203 main 1582 1582 _____P____O___ -1 -12.5598 90.0406 99 -12.9000 89.8000 7 3 244
1939011S12092 1939 5 SI MM NOT_NAMED 1939-01-13 03:00:00 NR -12.7973 89.7777 main 1597 1597 _____P____P___ -1 -12.6247 89.8741 99 -12.9699 89.6814 7 3 244
1939011S12092 1939 5 SI MM NOT_NAMED 1939-01-13 06:00:00 NR -12.8674 89.6261 main 1620 1620 _____O____P___ -1 -12.7000 89.7000 99 9.90000 -13.0348 89.5522 7 3 245
1939011S12092 1939 5 SI MM NOT_NAMED 1939-01-13 09:00:00 NR -12.9445 89.4559 main 1627 1627 _____P____P___ -1 -12.7817 89.5148 99 -13.1073 89.3969 7 4 245
1939011S12092 1939 5 SI MM NOT_NAMED 1939-01-13 12:00:00 NR -13.0365 89.2603 main 1649 1649 _____P____O___ -1 -12.8729 89.3206 99 -13.2000 89.2000 7 5 244
1939011S12092 1939 5 SI MM NOT_NAMED 1939-01-13 15:00:00 NR -13.1531 89.0174 main 1687 1687 _____P____P___ -1 -12.9734 89.1199 99 -13.3328 88.9149 7 6 243
1939011S12092 1939 5 SI MM NOT_NAMED 1939-01-13 18:00:00 NR -13.2840 88.7539 main 1710 1710 _____P____P___ -1 -13.0827 88.9149 99 -13.4854 88.5929 7 6 242
1939011S12092 1939 5 SI MM NOT_NAMED 1939-01-13 21:00:00 NR -13.4228 88.4912 main 1740 1740 _____P____P___ -1 -13.2003 88.7081 99 -13.6453 88.2743 7 6 240
1939011S12092 1939 5 SI MM NOT_NAMED 1939-01-14 00:00:00 NR -13.5630 88.2509 main 1771 1771 _____P____O___ -1 -13.3260 88.5017 99 -13.8000 88.0000 7 5 237
1939011S12092 1939 5 SI MM NOT_NAMED 1939-01-14 03:00:00 NR -13.6936 88.0695 main 1794 1794 _____P____P___ -1 -13.4594 88.2983 99 -13.9278 87.8406 7 4 232
1939011S12092 1939 5 SI MM NOT_NAMED 1939-01-14 06:00:00 NR -13.8248 87.9136 main 1817 1817 _____O____P___ -1 -13.6000 88.1000 99 9.90000 -14.0496 87.7271 7 4 229
1939011S12092 1939 5 SI MM NOT_NAMED 1939-01-14 09:00:00 NR -13.9529 87.7674 main 1841 1841 _____P____P___ -1 -13.7343 87.9098 99 -14.1716 87.6250 7 4 228
1939011S12092 1939 5 SI MM NOT_NAMED 1939-01-14 12:00:00 NR -14.0879 87.6116 main 1864 1864 _____P____O___ -1 -13.8758 87.7232 99 -14.3000 87.5000 7 4 231
1939011S12092 1939 5 SI MM NOT_NAMED 1939-01-14 15:00:00 NR -14.2279 87.4160 main 1886 1886 _____P____P___ -1 -14.0251 87.5405 99 -14.4307 87.2916 7 5 233
1939011S12092 1939 5 SI MM NOT_NAMED 1939-01-14 18:00:00 NR -14.3763 87.2098 main 1918 1918 _____P____P___ -1 -14.1824 87.3621 99 -14.5702 87.0575 7 5 232
1939011S12092 1939 5 SI MM NOT_NAMED 1939-01-14 21:00:00 NR -14.5363 87.0041 main 1940 1940 _____P____P___ -1 -14.3481 87.1885 99 -14.7245 86.8197 7 5 229
1939011S12092 1939 5 SI MM NOT_NAMED 1939-01-15 00:00:00 NR -14.7114 86.8100 main 1972 1972 _____P____O___ -1 -14.5227 87.0200 99 -14.9000 86.6000 7 5 224
1939011S12092 1939 5 SI MM NOT_NAMED 1939-01-15 03:00:00 NR -14.9050 86.6387 main 2003 2003 _____P____P___ -1 -14.7066 86.8570 99 -15.1034 86.4203 7 5 218
1939011S12092 1939 5 SI MM NOT_NAMED 1939-01-15 06:00:00 NR -15.1137 86.4812 main 2026 2026 _____O____P___ -1 -14.9000 86.7000 99 9.90000 -15.3274 86.2625 7 5 215
1939011S12092 1939 5 SI MM NOT_NAMED 1939-01-15 09:00:00 NR -15.3275 86.3312 main 2057 2057 _____P____P___ -1 -15.0921 86.5389 99 -15.5628 86.1234 7 5 213
1939011S12092 1939 5 SI MM NOT_NAMED 1939-01-15 12:00:00 NR -15.5468 86.1915 main 2081 2081 _____P____O___ -1 -15.2937 86.3830 99 -15.8000 86.0000 7 5 212
1939011S12092 1939 5 SI MM NOT_NAMED 1939-01-15 15:00:00 NR -15.7567 86.0592 main 2113 2113 _____P____P___ -1 -15.5047 86.2331 99 -16.0087 85.8854 7 5 210
1939011S12092 1939 5 SI MM NOT_NAMED 1939-01-15 18:00:00 NR -15.9725 85.9373 main 2144 2144 _____P____P___ -1 -15.7250 86.0899 99 -16.2199 85.7847 7 5 207
1939011S12092 1939 5 SI MM NOT_NAMED 1939-01-15 21:00:00 NR -16.2005 85.8229 main 2167 2167 _____P____P___ -1 -15.9547 85.9542 99 -16.4462 85.6917 7 5 205
1939011S12092 1939 5 SI MM NOT_NAMED 1939-01-16 00:00:00 NR -16.4469 85.7134 main 2191 2191 _____P____O___ -1 -16.1938 85.8268 99 -16.7000 85.6000 7 6 202
1939011S12092 1939 5 SI MM NOT_NAMED 1939-01-16 03:00:00 NR -16.7253 85.6002 main 2223 2223 _____P____P___ -1 -16.4422 85.7085 99 -17.0084 85.4920 7 6 200
1939011S12092 1939 5 SI MM NOT_NAMED 1939-01-16 06:00:00 NR -17.0213 85.4926 main 2255 2255 _____O____P___ -1 -16.7000 85.6000 99 9.90000 -17.3425 85.3852 7 6 199
1939011S12092 1939 5 SI MM NOT_NAMED 1939-01-16 09:00:00 NR -17.3270 85.3871 main 2287 2287 _____P____P___ -1 -16.9737 85.4884 99 -17.6803 85.2857 7 6 197
1939011S12092 1939 5 SI MM NOT_NAMED 1939-01-16 12:00:00 NR -17.6296 85.2929 main 2319 2319 _____P____O___ -1 -17.2592 85.3858 99 -18.0000 85.2000 7 6 196
1939011S12092 1939 5 SI MM NOT_NAMED 1939-01-16 15:00:00 NR -17.9121 85.2101 main 2352 2352 _____P____P___ -1 -17.5526 85.2929 99 -18.2715 85.1274 7 6 194
1939011S12092 1939 5 SI MM NOT_NAMED 1939-01-16 18:00:00 NR -18.1862 85.1401 main 2384 2384 _____P____P___ -1 -17.8499 85.2104 99 -18.5225 85.0699 7 6 192
1939011S12092 1939 5 SI MM NOT_NAMED 1939-01-16 21:00:00 NR -18.4547 85.0833 main 2409 2409 _____P____P___ -1 -18.1472 85.1391 99 -18.7622 85.0275 7 5 190
1939011S12092 1939 5 SI MM NOT_NAMED 1939-01-17 00:00:00 NR -18.7203 85.0399 main 2433 2433 _____P____O___ -1 -18.4406 85.0797 99 -19.0000 85.0000 7 5 187
1939011S12092 1939 5 SI MM NOT_NAMED 1939-01-17 03:00:00 NR -18.9901 85.0073 main 2459 2459 _____P____P___ -1 -18.7261 85.0331 99 -19.2540 84.9815 7 5 185
1939011S12092 1939 5 SI MM NOT_NAMED 1939-01-17 06:00:00 NR -19.2537 84.9887 main 2485 2485 _____O____P___ -1 -19.0000 85.0000 99 9.90000 -19.5075 84.9774 7 5 0
1939011S12092 1939 5 SI MM NOT_NAMED 1939-01-17 09:00:00 NR -19.4969 84.9793 main 2502 2502 _____P____P___ -1 -19.2367 84.9740 99 -19.7572 84.9847 7 5 0
1939011S12092 1939 5 SI MM NOT_NAMED 1939-01-17 12:00:00 NR -19.7307 84.9811 main 2520 2520 _____P____O___ -1 -19.4615 84.9621 99 -20.0000 85.0000 7 5 178
1939011S12092 1939 5 SI MM NOT_NAMED 1939-01-17 15:00:00 NR -19.9513 84.9903 main 2546 2546 _____P____P___ -1 -19.6786 84.9629 99 -20.2241 85.0178 7 4 178
1939011S12092 1939 5 SI MM NOT_NAMED 1939-01-17 18:00:00 NR -20.1674 85.0086 main 2564 2564 _____P____P___ -1 -19.8924 84.9747 99 -20.4425 85.0425 7 4 174
1939011S12092 1939 5 SI MM NOT_NAMED 1939-01-17 21:00:00 NR -20.3859 85.0334 main 2581 2581 _____P____P___ -1 -20.1071 84.9959 99 -20.6647 85.0709 7 5 173
1939011S12092 1939 5 SI MM NOT_NAMED 1939-01-18 00:00:00 NR -20.6136 85.0625 main 2593 2593 _____P____O___ -1 -20.3271 85.0249 99 -20.9000 85.1000 7 5 172
1939011S12092 1939 5 SI MM NOT_NAMED 1939-01-18 03:00:00 NR -20.8566 85.0886 main 2620 2620 _____P____P___ -1 -20.5566 85.0602 99 -21.1566 85.1170 7 5 173
1939011S12092 1939 5 SI MM NOT_NAMED 1939-01-18 06:00:00 NR -21.1137 85.1176 main 2638 2638 _____O____P___ -1 -20.8000 85.1000 99 9.90000 -21.4275 85.1352 7 6 174
1939011S12092 1939 5 SI MM NOT_NAMED 1939-01-18 09:00:00 NR -21.4062 85.1492 main 2665 2659 _____P____P___ -1 -21.1027 85.1376 99 -21.7097 85.1608 7 6 173
1939011S12092 1939 5 SI MM NOT_NAMED 1939-01-18 12:00:00 NR -21.7109 85.1909 main 2686 2686 _____P____O___ -1 -21.4219 85.1818 99 -22.0000 85.2000 7 6 172
1939011S12092 1939 5 SI MM NOT_NAMED 1939-01-18 15:00:00 NR -22.0222 85.2442 main 2713 2713 _____P____P___ -1 -21.7488 85.2312 99 -22.2957 85.2572 7 6 170
1939011S12092 1939 5 SI MM NOT_NAMED 1939-01-18 18:00:00 NR -22.2979 85.3036 main 2735 2735 _____P____P___ -1 -22.0750 85.2840 99 -22.5951 85.3296 7 6 168
1939011S12092 1939 5 SI MM NOT_NAMED 1939-01-18 21:00:00 NR -22.5602 85.3633 main 2757 2757 _____P____P___ -1 -22.3918 85.3390 99 -22.8969 85.4121 7 5 168
1939011S12092 1939 5 SI MM NOT_NAMED 1939-01-19 00:00:00 NR -22.7925 85.4155 main 2775 2775 _____P____O___ -1 -22.6907 85.3943 99 -23.2000 85.5000 7 4 168
1939011S12092 1939 5 SI MM NOT_NAMED 1939-01-19 03:00:00 NR -22.9629 85.4486 main 2788 2780 _____P________ -1 -22.9629 85.4486 99 7 4 169
1939011S12092 1939 5 SI MM NOT_NAMED 1939-01-19 06:00:00 NR -23.2000 85.5000 main 2794 2794 _____O________ -1 -23.2000 85.5000 99 9.90000 7 4 168
1939011S12092 1939 5 SI MM NOT_NAMED 1939-01-19 09:00:00 NR -23.3957 85.5474 main 2808 2800 _____P________ -1 -23.3957 85.5474 99 7 4 167
1939011S12092 1939 5 SI MM NOT_NAMED 1939-01-19 12:00:00 NR -23.5530 85.5908 main 2801 2799 _____P________ -1 -23.5530 85.5908 99 3 164
1939011S12092 1939 5 SI MM NOT_NAMED 1939-01-19 15:00:00 NR -23.6776 85.6309 main 2799 2787 _____P________ -1 -23.6776 85.6309 99 2 164
1939011S12092 1939 5 SI MM NOT_NAMED 1939-01-19 18:00:00 NR -23.7749 85.6682 main 2787 2787 _____P________ -1 -23.7749 85.6682 99 2 158
1939011S12092 1939 5 SI MM NOT_NAMED 1939-01-19 21:00:00 NR -23.8503 85.7031 main 2784 2784 _____P________ -1 -23.8503 85.7031 99 1 155
1939011S12092 1939 5 SI MM NOT_NAMED 1939-01-20 00:00:00 NR -23.9093 85.7364 main 2784 2772 _____P________ -1 -23.9093 85.7364 99 1 154
1939011S12092 1939 5 SI MM NOT_NAMED 1939-01-20 03:00:00 NR -23.9574 85.7685 main 2772 2772 _____P________ -1 -23.9574 85.7685 99 1 150
1939011S12092 1939 5 SI MM NOT_NAMED 1939-01-20 06:00:00 NR -24.0000 85.8000 main 2772 _____O________ -1 -24.0000 85.8000 99 9.90000 1 140

About IBTrACS Database

This database is a web-friendly format of International Best Track Archive for Climate Stewardship (IBTrACS), a global best track data archive curated by NOAA dating back to 1842.

Updated: 2021-10-21